createdAt,value
2019-04-04T00:00:34.739Z,149.18
2019-04-04T00:05:43.088Z,143.11
2019-04-04T00:10:50.775Z,171.14
2019-04-04T00:15:59.182Z,159.83
2019-04-04T00:21:06.777Z,176.84
2019-04-04T00:26:14.702Z,178.79
2019-04-04T00:31:22.842Z,174.09
2019-04-04T00:36:33.892Z,170.36
2019-04-04T00:41:38.122Z,191.35
2019-04-04T00:46:45.687Z,193.52
2019-04-04T00:51:53.497Z,208.11
2019-04-04T00:57:01.874Z,205.17
2019-04-04T01:02:10.431Z,226.98
2019-04-04T01:07:18.956Z,233.59
2019-04-04T01:12:26.493Z,217.26
2019-04-04T01:17:35.020Z,224.58
2019-04-04T01:22:41.776Z,229.48
2019-04-04T01:27:50.274Z,248.41
2019-04-04T01:32:58.711Z,237.72
2019-04-04T01:38:07.327Z,240.63
2019-04-04T01:43:15.012Z,235.41
2019-04-04T01:48:23.568Z,239.67
2019-04-04T01:53:31.282Z,247.84
2019-04-04T01:58:41.758Z,224.14
2019-04-04T02:03:47.464Z,228.27
2019-04-04T02:08:55.725Z,245.04
2019-04-04T02:14:03.412Z,229.39
2019-04-04T02:19:11.130Z,221.87
2019-04-04T02:24:19.985Z,205.79
2019-04-04T02:29:28.158Z,236.02
2019-04-04T02:34:37.893Z,205.58
2019-04-04T02:39:43.319Z,229.89
2019-04-04T02:44:50.971Z,185.98
2019-04-04T02:50:01.075Z,210.50
2019-04-04T02:55:07.223Z,196.74
2019-04-04T03:00:15.592Z,194.55
2019-04-04T03:05:24.117Z,190.42
2019-04-04T03:10:32.672Z,208.77
2019-04-04T03:15:41.880Z,258.94
2019-04-04T03:20:50.331Z,200.10
2019-04-04T03:25:56.604Z,158.92
2019-04-04T03:31:05.116Z,155.38
2019-04-04T03:36:13.505Z,188.67
2019-04-04T03:41:21.284Z,154.58
2019-04-04T03:46:32.971Z,186.36
2019-04-04T03:51:38.248Z,165.37
2019-04-04T03:56:45.450Z,230.79
2019-04-04T04:01:53.472Z,192.01
2019-04-04T04:07:02.028Z,138.52
2019-04-04T04:12:11.480Z,160.13
2019-04-04T04:17:19.467Z,131.33
2019-04-04T04:22:28.059Z,109.02
2019-04-04T04:27:36.614Z,65.17
2019-04-04T04:32:45.227Z,62.99
2019-04-04T04:37:57.235Z,76.81
2019-04-04T04:42:59.706Z,85.51
2019-04-04T04:48:04.093Z,75.93
2019-04-04T04:53:12.402Z,83.97
2019-04-04T04:58:20.960Z,100.06
2019-04-04T05:03:28.625Z,73.35
2019-04-04T05:08:36.393Z,83.17
2019-04-04T05:13:44.711Z,97.50
2019-04-04T05:18:52.491Z,97.13
2019-04-04T05:24:00.560Z,81.96
2019-04-04T05:29:08.406Z,100.98
2019-04-04T05:34:16.893Z,112.79
2019-04-04T05:39:25.724Z,109.22
2019-04-04T05:44:34.880Z,108.26
2019-04-04T05:49:42.717Z,109.26
2019-04-04T05:54:51.331Z,131.27
2019-04-04T05:59:59.507Z,112.91
2019-04-04T06:05:07.304Z,116.76
2019-04-04T06:10:17.998Z,119.00
2019-04-04T06:15:22.466Z,113.36
2019-04-04T06:20:30.871Z,102.89
2019-04-04T06:25:39.494Z,122.94
2019-04-04T06:30:47.897Z,98.72
2019-04-04T06:35:55.530Z,98.17
2019-04-04T06:41:04.259Z,103.18
2019-04-04T06:46:12.758Z,101.37
2019-04-04T06:51:21.285Z,96.77
2019-04-04T06:56:31.766Z,92.60
2019-04-04T07:01:37.045Z,79.47
2019-04-04T07:06:45.692Z,77.92
2019-04-04T07:11:54.003Z,78.38
2019-04-04T07:17:03.030Z,63.79
2019-04-04T07:22:11.723Z,82.72
2019-04-04T07:27:20.161Z,66.55
2019-04-04T07:32:28.565Z,67.64
2019-04-04T07:37:36.942Z,79.85
2019-04-04T07:42:47.923Z,81.17
2019-04-04T07:47:53.306Z,79.39
2019-04-04T07:53:04.827Z,77.73
2019-04-04T07:58:10.355Z,60.23
2019-04-04T08:03:19.126Z,60.94
2019-04-04T08:08:27.622Z,57.98
2019-04-04T08:13:36.178Z,56.70
2019-04-04T08:18:44.730Z,54.81
2019-04-04T08:23:53.199Z,64.18
2019-04-04T08:29:01.165Z,65.80
2019-04-04T08:34:09.921Z,67.57
2019-04-04T08:39:18.570Z,63.46
2019-04-04T08:44:26.860Z,60.16
2019-04-04T08:49:35.501Z,64.96
2019-04-04T08:54:43.934Z,73.89
2019-04-04T08:59:52.404Z,80.67
2019-04-04T09:05:11.327Z,61.12
2019-04-04T09:10:09.817Z,68.17
2019-04-04T09:15:18.347Z,67.39
2019-04-04T09:20:26.993Z,57.33
2019-04-04T09:25:35.691Z,75.32
2019-04-04T09:30:44.330Z,67.53
2019-04-04T09:35:52.809Z,57.35
2019-04-04T09:41:01.607Z,60.66
2019-04-04T09:46:11.329Z,58.00
2019-04-04T09:51:19.736Z,67.14
2019-04-04T09:56:27.516Z,70.61
2019-04-04T10:01:36.045Z,67.48
2019-04-04T10:06:44.600Z,77.04
2019-04-04T10:11:53.367Z,81.01
2019-04-04T10:17:01.624Z,78.22
2019-04-04T10:22:09.576Z,74.84
2019-04-04T10:27:18.106Z,68.14
2019-04-04T10:32:26.721Z,62.60
2019-04-04T10:37:35.064Z,47.67
2019-04-04T10:42:43.570Z,45.52
2019-04-04T10:47:52.059Z,41.69
2019-04-04T10:53:01.216Z,38.95
2019-04-04T10:58:09.025Z,51.55
2019-04-04T11:03:16.587Z,65.09
2019-04-04T11:08:24.521Z,67.66
2019-04-04T11:13:33.987Z,55.37
2019-04-04T11:18:40.635Z,61.33
2019-04-04T11:23:48.148Z,55.75
2019-04-04T11:28:56.130Z,52.81
2019-04-04T11:34:04.750Z,59.90
2019-04-04T11:39:13.156Z,136.12
2019-04-04T11:44:23.931Z,142.17
2019-04-04T11:49:22.529Z,123.30
2019-04-04T11:54:31.535Z,172.98
2019-04-04T11:59:39.789Z,170.28
2019-04-04T12:04:48.588Z,181.37
2019-04-04T12:10:06.832Z,205.40
2019-04-04T12:15:05.730Z,203.79
2019-04-04T12:20:14.740Z,214.33
2019-04-04T12:25:22.422Z,240.50
2019-04-04T12:30:31.217Z,250.56
2019-04-04T12:35:39.753Z,253.70
2019-04-04T12:40:48.276Z,221.97
2019-04-04T12:45:56.812Z,280.38
2019-04-04T12:51:05.417Z,259.61
2019-04-04T12:56:13.857Z,252.00
2019-04-04T13:01:22.349Z,251.28
2019-04-04T13:06:30.785Z,258.19
2019-04-04T13:11:39.798Z,260.94
2019-04-04T13:16:48.769Z,246.82
2019-04-04T13:21:56.843Z,219.81
2019-04-04T13:27:06.454Z,189.51
2019-04-04T13:32:14.404Z,157.02
2019-04-04T13:37:22.874Z,177.22
2019-04-04T13:42:31.522Z,161.56
2019-04-04T13:47:40.300Z,147.27
2019-04-04T13:52:47.503Z,150.75
2019-04-04T13:57:55.780Z,138.92
2019-04-04T14:03:04.577Z,151.13
2019-04-04T14:08:14.564Z,138.22
2019-04-04T14:13:25.984Z,114.71
2019-04-04T14:18:39.490Z,110.58
2019-04-04T14:23:40.991Z,78.23
2019-04-04T14:28:50.077Z,63.76
2019-04-04T14:33:58.742Z,68.64
2019-04-04T14:39:07.746Z,45.31
2019-04-04T14:44:16.271Z,99.95
2019-04-04T14:49:24.680Z,44.44
2019-04-04T14:54:34.031Z,60.97
2019-04-04T14:59:43.315Z,54.24
2019-04-04T15:04:52.059Z,60.12
2019-04-04T15:10:00.793Z,56.66
2019-04-04T15:15:10.074Z,52.03
2019-04-04T15:20:19.076Z,58.13
2019-04-04T15:25:27.973Z,69.89
2019-04-04T15:30:36.826Z,73.93
2019-04-04T15:35:46.432Z,78.39
2019-04-04T15:40:56.034Z,80.71
2019-04-04T15:46:04.241Z,85.64
2019-04-04T15:51:13.001Z,94.97
2019-04-04T15:56:22.601Z,119.30
2019-04-04T16:01:32.569Z,83.62
2019-04-04T16:06:41.813Z,114.06
2019-04-04T16:11:50.487Z,106.40
2019-04-04T16:16:59.229Z,57.02
2019-04-04T16:22:07.844Z,37.08
2019-04-04T16:27:16.734Z,56.42
2019-04-04T16:32:25.137Z,28.08
2019-04-04T16:37:33.578Z,52.18
2019-04-04T16:42:41.988Z,17.42
2019-04-04T16:47:50.750Z,19.67
2019-04-04T16:52:59.759Z,10.28
2019-04-04T16:58:07.652Z,12.83
2019-04-04T17:03:16.574Z,5.96
2019-04-04T17:08:25.309Z,8.64
2019-04-04T17:13:33.741Z,12.51
2019-04-04T17:18:42.293Z,16.00
2019-04-04T17:23:51.157Z,9.54
2019-04-04T17:28:59.321Z,15.22
2019-04-04T17:34:07.807Z,5.80
2019-04-04T17:39:16.129Z,10.70
2019-04-04T17:44:25.048Z,7.55
2019-04-04T17:49:34.001Z,5.69
2019-04-04T17:54:41.859Z,5.17
2019-04-04T17:59:49.782Z,5.37
2019-04-04T18:04:58.554Z,8.51
2019-04-04T18:10:07.503Z,4.82
2019-04-04T18:15:16.057Z,4.76
2019-04-04T18:20:25.449Z,8.67
2019-04-04T18:25:35.002Z,6.38
2019-04-04T18:30:42.956Z,6.93
2019-04-04T18:35:50.760Z,4.55
2019-04-04T18:40:59.776Z,5.97
2019-04-04T18:46:08.184Z,5.29
2019-04-04T18:51:15.594Z,5.37
2019-04-04T18:56:24.846Z,4.87
2019-04-04T19:01:33.864Z,5.29
2019-04-04T19:06:43.472Z,5.04
2019-04-04T19:11:52.939Z,5.27
2019-04-04T19:17:02.071Z,5.44
2019-04-04T19:22:11.349Z,5.32
2019-04-04T19:27:19.005Z,7.39
2019-04-04T19:32:27.681Z,6.59
2019-04-04T19:37:35.480Z,20.72
2019-04-04T19:42:44.382Z,10.27
2019-04-04T19:47:53.145Z,22.12
2019-04-04T19:53:01.448Z,7.40
2019-04-04T19:58:09.800Z,7.74
2019-04-04T20:03:18.809Z,10.92
2019-04-04T20:08:27.694Z,6.58
2019-04-04T20:13:36.038Z,7.60
2019-04-04T20:18:44.748Z,6.64
2019-04-04T20:23:53.661Z,7.28
2019-04-04T20:29:02.557Z,8.24
2019-04-04T20:34:10.474Z,8.67
2019-04-04T20:39:19.335Z,8.02
2019-04-04T20:44:28.459Z,8.42
2019-04-04T20:49:36.657Z,7.86
2019-04-04T20:54:47.432Z,8.38
2019-04-04T20:59:45.456Z,7.73
2019-04-04T21:04:54.566Z,9.32
2019-04-04T21:10:02.247Z,8.24
2019-04-04T21:15:10.292Z,6.93
2019-04-04T21:20:18.842Z,8.47
2019-04-04T21:25:27.554Z,7.68
2019-04-04T21:30:35.719Z,6.52
2019-04-04T21:35:43.674Z,6.53
2019-04-04T21:40:52.086Z,6.77
2019-04-04T21:46:00.853Z,7.85
2019-04-04T21:51:09.468Z,31.92
2019-04-04T21:56:17.872Z,10.11
2019-04-04T22:01:26.423Z,12.39
2019-04-04T22:06:35.083Z,13.90
2019-04-04T22:11:43.598Z,12.51
2019-04-04T22:16:52.004Z,14.30
2019-04-04T22:22:00.680Z,8.16
2019-04-04T22:27:09.300Z,7.68
2019-04-04T22:32:17.952Z,17.46
2019-04-04T22:37:26.323Z,13.23
2019-04-04T22:42:36.777Z,37.00
2019-04-04T22:47:34.496Z,9.01
2019-04-04T22:52:42.452Z,7.41
2019-04-04T22:57:50.647Z,73.65
2019-04-04T23:02:59.236Z,16.21
2019-04-04T23:08:07.717Z,40.69
2019-04-04T23:13:16.048Z,11.11
2019-04-04T23:18:23.886Z,7.97
2019-04-04T23:23:31.688Z,7.15
2019-04-04T23:28:40.190Z,10.33
2019-04-04T23:33:47.755Z,30.74
2019-04-04T23:38:56.308Z,48.19
2019-04-04T23:44:04.330Z,18.84
2019-04-04T23:49:12.161Z,20.66
2019-04-04T23:54:19.847Z,20.09
2019-04-04T23:59:28.499Z,12.37
